sensor_id;sensor_type;location;lat;lon;timestamp;pressure;altitude;pressure_sealevel;temperature;humidity
78485;BME280;67773;50.806;8.776;2023-07-24T00:02:03;98792.28;;;16.30;86.95
78485;BME280;67773;50.806;8.776;2023-07-24T00:04:30;98789.59;;;16.30;86.88
78485;BME280;67773;50.806;8.776;2023-07-24T00:06:55;98784.25;;;16.30;86.99
78485;BME280;67773;50.806;8.776;2023-07-24T00:09:21;98783.53;;;16.28;86.57
78485;BME280;67773;50.806;8.776;2023-07-24T00:11:46;98778.31;;;16.27;86.40
78485;BME280;67773;50.806;8.776;2023-07-24T00:14:11;98782.50;;;16.20;86.92
78485;BME280;67773;50.806;8.776;2023-07-24T00:16:37;98784.72;;;16.14;87.02
78485;BME280;67773;50.806;8.776;2023-07-24T00:19:02;98788.66;;;16.10;86.96
78485;BME280;67773;50.806;8.776;2023-07-24T00:21:27;98793.47;;;16.07;87.17
78485;BME280;67773;50.806;8.776;2023-07-24T00:23:52;98788.81;;;16.09;87.03
78485;BME280;67773;50.806;8.776;2023-07-24T00:26:18;98784.97;;;16.02;86.84
78485;BME280;67773;50.806;8.776;2023-07-24T00:28:43;98784.53;;;15.97;86.98
78485;BME280;67773;50.806;8.776;2023-07-24T00:31:08;98780.16;;;15.96;86.53
78485;BME280;67773;50.806;8.776;2023-07-24T00:33:34;98786.50;;;15.95;86.61
78485;BME280;67773;50.806;8.776;2023-07-24T00:35:59;98795.06;;;15.88;86.77
78485;BME280;67773;50.806;8.776;2023-07-24T00:38:24;98793.03;;;15.81;87.09
78485;BME280;67773;50.806;8.776;2023-07-24T00:40:50;98789.97;;;15.85;86.83
78485;BME280;67773;50.806;8.776;2023-07-24T00:43:15;98785.72;;;15.83;86.63
78485;BME280;67773;50.806;8.776;2023-07-24T00:45:41;98782.19;;;15.82;87.09
78485;BME280;67773;50.806;8.776;2023-07-24T00:48:06;98782.31;;;15.81;87.18
78485;BME280;67773;50.806;8.776;2023-07-24T00:50:32;98784.88;;;15.82;87.28
78485;BME280;67773;50.806;8.776;2023-07-24T00:52:57;98785.59;;;15.84;86.77
78485;BME280;67773;50.806;8.776;2023-07-24T00:55:23;98767.41;;;15.78;87.28
78485;BME280;67773;50.806;8.776;2023-07-24T00:57:49;98777.59;;;15.94;87.10
78485;BME280;67773;50.806;8.776;2023-07-24T01:00:15;98777.81;;;16.12;86.78
78485;BME280;67773;50.806;8.776;2023-07-24T01:02:41;98777.13;;;16.10;86.38
78485;BME280;67773;50.806;8.776;2023-07-24T01:05:07;98771.19;;;16.06;86.87
78485;BME280;67773;50.806;8.776;2023-07-24T01:07:33;98774.44;;;16.10;86.78
78485;BME280;67773;50.806;8.776;2023-07-24T01:09:59;98763.44;;;16.13;86.45
78485;BME280;67773;50.806;8.776;2023-07-24T01:12:31;98766.53;;;16.08;86.81
78485;BME280;67773;50.806;8.776;2023-07-24T01:15:17;98757.94;;;16.05;87.14
78485;BME280;67773;50.806;8.776;2023-07-24T01:17:50;98754.53;;;16.03;86.92
78485;BME280;67773;50.806;8.776;2023-07-24T01:20:19;98749.97;;;15.94;87.38
78485;BME280;67773;50.806;8.776;2023-07-24T01:26:01;98730.81;;;15.88;87.54
78485;BME280;67773;50.806;8.776;2023-07-24T01:28:29;98729.94;;;15.78;87.86
78485;BME280;67773;50.806;8.776;2023-07-24T01:30:55;98738.16;;;15.86;87.54
78485;BME280;67773;50.806;8.776;2023-07-24T01:33:21;98729.94;;;15.78;87.86
78485;BME280;67773;50.806;8.776;2023-07-24T01:35:57;98737.63;;;15.72;87.94
78485;BME280;67773;50.806;8.776;2023-07-24T01:38:26;98739.16;;;15.65;88.32
78485;BME280;67773;50.806;8.776;2023-07-24T01:40:53;98734.72;;;15.54;88.63
78485;BME280;67773;50.806;8.776;2023-07-24T01:43:19;98737.13;;;15.57;88.15
78485;BME280;67773;50.806;8.776;2023-07-24T01:45:44;98733.72;;;15.55;88.18
78485;BME280;67773;50.806;8.776;2023-07-24T01:48:09;98747.09;;;15.55;88.26
78485;BME280;67773;50.806;8.776;2023-07-24T01:50:35;98735.94;;;15.50;88.54
78485;BME280;67773;50.806;8.776;2023-07-24T01:53:00;98732.16;;;15.52;88.25
78485;BME280;67773;50.806;8.776;2023-07-24T01:55:25;98714.75;;;15.37;88.18
78485;BME280;67773;50.806;8.776;2023-07-24T01:57:51;98724.19;;;15.41;88.86
78485;BME280;67773;50.806;8.776;2023-07-24T02:00:16;98719.84;;;15.40;88.49
78485;BME280;67773;50.806;8.776;2023-07-24T02:02:41;98722.38;;;15.42;88.13
78485;BME280;67773;50.806;8.776;2023-07-24T02:05:07;98707.06;;;15.44;88.44
78485;BME280;67773;50.806;8.776;2023-07-24T02:07:32;98707.63;;;15.47;88.10
78485;BME280;67773;50.806;8.776;2023-07-24T02:09:58;98711.44;;;15.45;88.17
78485;BME280;67773;50.806;8.776;2023-07-24T02:12:23;98715.53;;;15.49;88.07
78485;BME280;67773;50.806;8.776;2023-07-24T02:14:48;98712.16;;;15.47;87.94
78485;BME280;67773;50.806;8.776;2023-07-24T02:17:15;98709.53;;;15.56;87.90
78485;BME280;67773;50.806;8.776;2023-07-24T02:19:41;98709.19;;;15.50;87.58
78485;BME280;67773;50.806;8.776;2023-07-24T02:22:06;98698.50;;;15.50;87.67
78485;BME280;67773;50.806;8.776;2023-07-24T02:24:31;98686.97;;;15.49;87.83
78485;BME280;67773;50.806;8.776;2023-07-24T02:26:57;98682.28;;;15.72;87.12
78485;BME280;67773;50.806;8.776;2023-07-24T02:29:22;98687.59;;;15.63;87.30
78485;BME280;67773;50.806;8.776;2023-07-24T02:31:48;98682.84;;;15.66;87.60
78485;BME280;67773;50.806;8.776;2023-07-24T02:34:13;98682.84;;;15.66;87.52
78485;BME280;67773;50.806;8.776;2023-07-24T02:36:38;98684.53;;;15.67;87.54
78485;BME280;67773;50.806;8.776;2023-07-24T02:39:04;98670.47;;;15.65;87.49
78485;BME280;67773;50.806;8.776;2023-07-24T02:41:30;98676.38;;;15.69;87.52
78485;BME280;67773;50.806;8.776;2023-07-24T02:43:55;98682.25;;;15.63;87.51
78485;BME280;67773;50.806;8.776;2023-07-24T02:46:20;98682.63;;;15.58;87.84
78485;BME280;67773;50.806;8.776;2023-07-24T02:48:47;98685.00;;;15.51;88.11
78485;BME280;67773;50.806;8.776;2023-07-24T02:51:13;98677.09;;;15.50;88.11
78485;BME280;67773;50.806;8.776;2023-07-24T02:53:38;98660.44;;;15.37;88.45
78485;BME280;67773;50.806;8.776;2023-07-24T02:56:03;98669.16;;;15.39;88.32
78485;BME280;67773;50.806;8.776;2023-07-24T02:58:28;98671.56;;;15.42;88.55
78485;BME280;67773;50.806;8.776;2023-07-24T03:00:54;98670.47;;;15.44;88.80
78485;BME280;67773;50.806;8.776;2023-07-24T03:03:19;98677.53;;;15.45;88.81
78485;BME280;67773;50.806;8.776;2023-07-24T03:05:44;98660.72;;;15.34;88.78
78485;BME280;67773;50.806;8.776;2023-07-24T03:08:10;98668.88;;;15.42;89.10
78485;BME280;67773;50.806;8.776;2023-07-24T03:10:40;98671.03;;;15.48;88.44
78485;BME280;67773;50.806;8.776;2023-07-24T03:13:05;98660.88;;;15.42;88.73
78485;BME280;67773;50.806;8.776;2023-07-24T03:15:30;98672.88;;;15.47;88.71
78485;BME280;67773;50.806;8.776;2023-07-24T03:17:55;98671.19;;;15.46;88.48
78485;BME280;67773;50.806;8.776;2023-07-24T03:20:21;98670.63;;;15.52;88.62
78485;BME280;67773;50.806;8.776;2023-07-24T03:22:46;98680.47;;;15.52;88.61
78485;BME280;67773;50.806;8.776;2023-07-24T03:25:12;98666.41;;;15.50;88.41
78485;BME280;67773;50.806;8.776;2023-07-24T03:27:38;98668.09;;;15.51;88.38
78485;BME280;67773;50.806;8.776;2023-07-24T03:30:03;98675.72;;;15.55;88.52
78485;BME280;67773;50.806;8.776;2023-07-24T03:32:29;98667.84;;;15.54;88.70
78485;BME280;67773;50.806;8.776;2023-07-24T03:34:54;98667.84;;;15.54;88.90
78485;BME280;67773;50.806;8.776;2023-07-24T03:37:19;98660.41;;;15.57;88.63
78485;BME280;67773;50.806;8.776;2023-07-24T03:39:45;98653.34;;;15.56;88.48
78485;BME280;67773;50.806;8.776;2023-07-24T03:42:10;98649.91;;;15.66;88.61
78485;BME280;67773;50.806;8.776;2023-07-24T03:44:40;98655.13;;;15.67;88.48
78485;BME280;67773;50.806;8.776;2023-07-24T03:47:05;98655.50;;;15.63;88.49
78485;BME280;67773;50.806;8.776;2023-07-24T03:49:30;98614.75;;;15.49;88.30
78485;BME280;67773;50.806;8.776;2023-07-24T03:51:56;98626.47;;;15.58;88.26
78485;BME280;67773;50.806;8.776;2023-07-24T03:54:21;98615.34;;;15.53;88.80
78485;BME280;67773;50.806;8.776;2023-07-24T03:56:46;98626.22;;;15.61;88.75
78485;BME280;67773;50.806;8.776;2023-07-24T03:59:12;98627.31;;;15.58;88.67
78485;BME280;67773;50.806;8.776;2023-07-24T04:01:37;98622.81;;;15.59;88.52
78485;BME280;67773;50.806;8.776;2023-07-24T04:04:03;98599.97;;;15.45;88.67
78485;BME280;67773;50.806;8.776;2023-07-24T04:06:28;98621.78;;;15.50;88.86
78485;BME280;67773;50.806;8.776;2023-07-24T04:08:53;98629.81;;;15.50;89.24
78485;BME280;67773;50.806;8.776;2023-07-24T04:11:19;98628.97;;;15.50;89.16
78485;BME280;67773;50.806;8.776;2023-07-24T04:13:44;98621.66;;;15.52;89.01
78485;BME280;67773;50.806;8.776;2023-07-24T04:16:09;98620.94;;;15.50;89.20
78485;BME280;67773;50.806;8.776;2023-07-24T04:18:34;98623.91;;;15.47;89.33
78485;BME280;67773;50.806;8.776;2023-07-24T04:21:00;98611.66;;;15.44;89.31
78485;BME280;67773;50.806;8.776;2023-07-24T04:23:25;98610.19;;;15.40;89.34
78485;BME280;67773;50.806;8.776;2023-07-24T04:25:50;98614.56;;;15.41;89.70
78485;BME280;67773;50.806;8.776;2023-07-24T04:28:15;98588.97;;;15.48;89.81
78485;BME280;67773;50.806;8.776;2023-07-24T04:30:41;98606.19;;;15.55;89.31
78485;BME280;67773;50.806;8.776;2023-07-24T04:33:06;98588.72;;;15.51;89.10
78485;BME280;67773;50.806;8.776;2023-07-24T04:35:31;98591.13;;;15.54;89.12
78485;BME280;67773;50.806;8.776;2023-07-24T04:37:57;98592.94;;;15.44;89.12
78485;BME280;67773;50.806;8.776;2023-07-24T04:40:23;98602.50;;;15.47;89.20
78485;BME280;67773;50.806;8.776;2023-07-24T04:42:48;98600.94;;;15.44;88.84
78485;BME280;67773;50.806;8.776;2023-07-24T04:45:14;98610.38;;;15.48;89.51
78485;BME280;67773;50.806;8.776;2023-07-24T04:47:39;98601.38;;;15.49;89.05
78485;BME280;67773;50.806;8.776;2023-07-24T04:50:05;98604.19;;;15.48;89.45
78485;BME280;67773;50.806;8.776;2023-07-24T04:52:30;98595.59;;;15.44;89.45
78485;BME280;67773;50.806;8.776;2023-07-24T04:54:55;98596.03;;;15.49;89.52
78485;BME280;67773;50.806;8.776;2023-07-24T04:57:21;98597.47;;;15.53;89.13
78485;BME280;67773;50.806;8.776;2023-07-24T04:59:46;98586.09;;;15.61;88.96
78485;BME280;67773;50.806;8.776;2023-07-24T05:02:11;98591.34;;;15.72;89.01
78485;BME280;67773;50.806;8.776;2023-07-24T05:04:37;98582.47;;;15.81;88.45
78485;BME280;67773;50.806;8.776;2023-07-24T05:07:02;98588.44;;;15.95;88.34
78485;BME280;67773;50.806;8.776;2023-07-24T05:09:28;98580.28;;;16.06;87.33
78485;BME280;67773;50.806;8.776;2023-07-24T05:11:53;98582.97;;;16.35;85.81
78485;BME280;67773;50.806;8.776;2023-07-24T05:14:18;98584.78;;;16.44;85.53
78485;BME280;67773;50.806;8.776;2023-07-24T05:16:43;98583.38;;;16.50;85.35
78485;BME280;67773;50.806;8.776;2023-07-24T05:19:09;98584.78;;;16.54;85.19
78485;BME280;67773;50.806;8.776;2023-07-24T05:21:34;98591.69;;;16.56;84.41
78485;BME280;67773;50.806;8.776;2023-07-24T05:23:59;98593.97;;;16.61;84.45
78485;BME280;67773;50.806;8.776;2023-07-24T05:26:25;98599.03;;;16.73;83.72
78485;BME280;67773;50.806;8.776;2023-07-24T05:28:50;98599.47;;;16.79;83.47
78485;BME280;67773;50.806;8.776;2023-07-24T05:31:17;98586.06;;;16.79;83.21
78485;BME280;67773;50.806;8.776;2023-07-24T05:33:43;98600.72;;;16.84;82.53
78485;BME280;67773;50.806;8.776;2023-07-24T05:36:08;98611.44;;;16.84;82.88
78485;BME280;67773;50.806;8.776;2023-07-24T05:38:33;98605.78;;;16.78;82.75
78485;BME280;67773;50.806;8.776;2023-07-24T05:41:00;98620.47;;;16.83;83.11
78485;BME280;67773;50.806;8.776;2023-07-24T05:43:27;98613.13;;;16.85;82.40
78485;BME280;67773;50.806;8.776;2023-07-24T05:45:53;98606.91;;;16.85;82.24
78485;BME280;67773;50.806;8.776;2023-07-24T05:48:19;98613.97;;;16.86;82.03
78485;BME280;67773;50.806;8.776;2023-07-24T05:50:45;98609.72;;;16.93;81.96
78485;BME280;67773;50.806;8.776;2023-07-24T05:53:10;98608.88;;;16.92;82.55
78485;BME280;67773;50.806;8.776;2023-07-24T05:55:35;98599.84;;;17.03;82.09
78485;BME280;67773;50.806;8.776;2023-07-24T05:58:00;98601.78;;;17.20;81.36
78485;BME280;67773;50.806;8.776;2023-07-24T06:00:26;98600.31;;;17.26;79.75
78485;BME280;67773;50.806;8.776;2023-07-24T06:02:53;98600.03;;;17.29;79.77
78485;BME280;67773;50.806;8.776;2023-07-24T06:05:19;98582.53;;;17.25;79.97
78485;BME280;67773;50.806;8.776;2023-07-24T06:07:47;98603.94;;;17.44;79.12
78485;BME280;67773;50.806;8.776;2023-07-24T06:10:12;98606.47;;;17.46;78.94
78485;BME280;67773;50.806;8.776;2023-07-24T06:12:38;98571.69;;;17.54;78.32
78485;BME280;67773;50.806;8.776;2023-07-24T06:15:03;98586.44;;;17.68;77.66
78485;BME280;67773;50.806;8.776;2023-07-24T06:17:30;98578.97;;;17.71;77.41
78485;BME280;67773;50.806;8.776;2023-07-24T06:19:55;98578.78;;;17.82;77.09
78485;BME280;67773;50.806;8.776;2023-07-24T06:22:21;98575.72;;;17.95;76.22
78485;BME280;67773;50.806;8.776;2023-07-24T06:24:47;98566.03;;;18.02;75.72
78485;BME280;67773;50.806;8.776;2023-07-24T06:27:12;98565.44;;;18.08;75.62
78485;BME280;67773;50.806;8.776;2023-07-24T06:29:37;98559.75;;;18.11;74.46
78485;BME280;67773;50.806;8.776;2023-07-24T06:32:03;98563.16;;;18.13;75.27
78485;BME280;67773;50.806;8.776;2023-07-24T06:34:28;98554.16;;;18.23;75.10
78485;BME280;67773;50.806;8.776;2023-07-24T06:36:54;98557.25;;;18.28;73.64
78485;BME280;67773;50.806;8.776;2023-07-24T06:39:19;98553.06;;;18.33;73.69
78485;BME280;67773;50.806;8.776;2023-07-24T06:41:45;98556.25;;;18.29;73.76
78485;BME280;67773;50.806;8.776;2023-07-24T06:44:10;98561.28;;;18.32;73.06
78485;BME280;67773;50.806;8.776;2023-07-24T06:46:36;98546.69;;;18.52;72.18
78485;BME280;67773;50.806;8.776;2023-07-24T06:49:01;98551.97;;;18.80;71.26
78485;BME280;67773;50.806;8.776;2023-07-24T06:51:26;98545.91;;;19.03;70.63
78485;BME280;67773;50.806;8.776;2023-07-24T06:53:52;98545.28;;;19.44;68.78
78485;BME280;67773;50.806;8.776;2023-07-24T06:56:17;98539.69;;;19.71;67.24
78485;BME280;67773;50.806;8.776;2023-07-24T06:58:42;98522.13;;;19.59;67.70
78485;BME280;67773;50.806;8.776;2023-07-24T07:01:07;98529.53;;;19.57;67.12
78485;BME280;67773;50.806;8.776;2023-07-24T07:03:33;98524.16;;;19.57;66.74
78485;BME280;67773;50.806;8.776;2023-07-24T07:06:02;98526.53;;;19.60;66.47
78485;BME280;67773;50.806;8.776;2023-07-24T07:08:30;98520.16;;;19.69;66.21
78485;BME280;67773;50.806;8.776;2023-07-24T07:10:57;98517.31;;;19.71;66.03
78485;BME280;67773;50.806;8.776;2023-07-24T07:13:22;98524.03;;;19.75;66.66
78485;BME280;67773;50.806;8.776;2023-07-24T07:15:47;98522.25;;;19.92;64.97
78485;BME280;67773;50.806;8.776;2023-07-24T07:18:13;98511.66;;;20.06;63.53
78485;BME280;67773;50.806;8.776;2023-07-24T07:20:38;98516.22;;;20.22;62.86
78485;BME280;67773;50.806;8.776;2023-07-24T07:23:03;98517.88;;;20.39;62.02
78485;BME280;67773;50.806;8.776;2023-07-24T07:25:29;98516.41;;;20.53;61.47
78485;BME280;67773;50.806;8.776;2023-07-24T07:27:54;98513.19;;;20.58;61.95
78485;BME280;67773;50.806;8.776;2023-07-24T07:30:19;98516.84;;;20.97;60.74
78485;BME280;67773;50.806;8.776;2023-07-24T07:32:44;98511.19;;;21.23;59.76
78485;BME280;67773;50.806;8.776;2023-07-24T07:35:10;98511.22;;;21.63;59.25
78485;BME280;67773;50.806;8.776;2023-07-24T07:37:35;98513.53;;;21.74;56.75
78485;BME280;67773;50.806;8.776;2023-07-24T07:40:00;98517.50;;;21.86;57.55
78485;BME280;67773;50.806;8.776;2023-07-24T07:42:26;98505.25;;;21.98;56.76
78485;BME280;67773;50.806;8.776;2023-07-24T07:44:51;98512.16;;;22.32;54.81
78485;BME280;67773;50.806;8.776;2023-07-24T07:47:16;98512.84;;;22.48;54.23
78485;BME280;67773;50.806;8.776;2023-07-24T07:49:41;98513.94;;;22.62;54.17
78485;BME280;67773;50.806;8.776;2023-07-24T07:52:07;98517.28;;;22.64;53.65
78485;BME280;67773;50.806;8.776;2023-07-24T07:54:32;98513.50;;;22.51;53.43
78485;BME280;67773;50.806;8.776;2023-07-24T07:56:57;98506.47;;;22.64;53.17
78485;BME280;67773;50.806;8.776;2023-07-24T07:59:23;98502.69;;;22.51;53.09
78485;BME280;67773;50.806;8.776;2023-07-24T08:01:48;98513.06;;;22.85;52.44
78485;BME280;67773;50.806;8.776;2023-07-24T08:04:13;98502.56;;;22.82;52.86
78485;BME280;67773;50.806;8.776;2023-07-24T08:06:39;98499.59;;;22.76;52.66
78485;BME280;67773;50.806;8.776;2023-07-24T08:09:04;98492.44;;;22.46;53.38
78485;BME280;67773;50.806;8.776;2023-07-24T08:11:30;98515.81;;;22.39;53.74
78485;BME280;67773;50.806;8.776;2023-07-24T08:13:55;98506.03;;;22.38;53.55
78485;BME280;67773;50.806;8.776;2023-07-24T08:16:20;98495.78;;;22.48;53.41
78485;BME280;67773;50.806;8.776;2023-07-24T08:18:46;98503.38;;;22.30;53.84
78485;BME280;67773;50.806;8.776;2023-07-24T08:21:13;98517.28;;;21.96;54.78
78485;BME280;67773;50.806;8.776;2023-07-24T08:23:39;98486.88;;;21.71;55.57
78485;BME280;67773;50.806;8.776;2023-07-24T08:26:05;98508.53;;;21.94;54.89
78485;BME280;67773;50.806;8.776;2023-07-24T08:28:31;98493.16;;;21.94;55.12
78485;BME280;67773;50.806;8.776;2023-07-24T08:30:59;98489.19;;;21.82;55.18
78485;BME280;67773;50.806;8.776;2023-07-24T08:33:24;98487.16;;;22.07;54.89
78485;BME280;67773;50.806;8.776;2023-07-24T08:36:07;98488.97;;;22.14;54.50
78485;BME280;67773;50.806;8.776;2023-07-24T08:38:33;98494.38;;;22.14;54.60
78485;BME280;67773;50.806;8.776;2023-07-24T08:41:04;98494.34;;;22.23;54.27
78485;BME280;67773;50.806;8.776;2023-07-24T08:43:30;98485.16;;;22.46;54.06
78485;BME280;67773;50.806;8.776;2023-07-24T08:45:57;98482.19;;;22.94;52.45
78485;BME280;67773;50.806;8.776;2023-07-24T08:48:23;98474.25;;;23.07;52.44
78485;BME280;67773;50.806;8.776;2023-07-24T08:50:51;98473.06;;;23.24;51.12
78485;BME280;67773;50.806;8.776;2023-07-24T08:53:19;98478.47;;;23.24;51.32
78485;BME280;67773;50.806;8.776;2023-07-24T08:55:48;98468.72;;;23.59;50.57
78485;BME280;67773;50.806;8.776;2023-07-24T08:58:14;98466.75;;;23.39;50.94
78485;BME280;67773;50.806;8.776;2023-07-24T09:00:40;98467.44;;;23.26;50.07
78485;BME280;67773;50.806;8.776;2023-07-24T09:03:05;98478.25;;;23.11;50.11
78485;BME280;67773;50.806;8.776;2023-07-24T09:05:30;98484.56;;;22.74;51.51
78485;BME280;67773;50.806;8.776;2023-07-24T09:07:56;98483.16;;;22.63;51.09
78485;BME280;67773;50.806;8.776;2023-07-24T09:10:25;98491.47;;;22.39;52.04
78485;BME280;67773;50.806;8.776;2023-07-24T09:12:51;98480.22;;;22.50;51.08
78485;BME280;67773;50.806;8.776;2023-07-24T09:15:16;98477.16;;;22.53;51.06
78485;BME280;67773;50.806;8.776;2023-07-24T09:17:49;98494.91;;;22.70;50.83
78485;BME280;67773;50.806;8.776;2023-07-24T09:20:15;98486.09;;;23.36;49.22
78485;BME280;67773;50.806;8.776;2023-07-24T09:22:51;98481.31;;;23.67;48.28
78485;BME280;67773;50.806;8.776;2023-07-24T09:25:17;98471.03;;;23.99;48.60
78485;BME280;67773;50.806;8.776;2023-07-24T09:27:42;98475.22;;;24.01;47.26
78485;BME280;67773;50.806;8.776;2023-07-24T09:30:14;98458.31;;;23.78;47.73
78485;BME280;67773;50.806;8.776;2023-07-24T09:32:40;98465.28;;;23.21;49.30
78485;BME280;67773;50.806;8.776;2023-07-24T09:35:16;98450.91;;;23.36;49.60
78485;BME280;67773;50.806;8.776;2023-07-24T09:37:44;98455.38;;;23.28;49.31
78485;BME280;67773;50.806;8.776;2023-07-24T09:40:10;98457.69;;;23.46;48.43
78485;BME280;67773;50.806;8.776;2023-07-24T09:42:37;98465.06;;;23.67;47.59
78485;BME280;67773;50.806;8.776;2023-07-24T09:45:04;98457.41;;;25.73;42.77
78485;BME280;67773;50.806;8.776;2023-07-24T09:47:30;98446.81;;;27.75;38.04
78485;BME280;67773;50.806;8.776;2023-07-24T09:49:56;98443.50;;;29.23;34.77
78485;BME280;67773;50.806;8.776;2023-07-24T09:52:24;98436.66;;;28.95;34.51
78485;BME280;67773;50.806;8.776;2023-07-24T09:54:59;98409.72;;;29.84;33.42
78485;BME280;67773;50.806;8.776;2023-07-24T09:57:25;98424.91;;;28.70;34.75
78485;BME280;67773;50.806;8.776;2023-07-24T09:59:52;98415.31;;;29.41;33.82
78485;BME280;67773;50.806;8.776;2023-07-24T10:02:18;98412.13;;;29.25;33.08
78485;BME280;67773;50.806;8.776;2023-07-24T10:04:44;98413.44;;;27.28;37.26
78485;BME280;67773;50.806;8.776;2023-07-24T10:07:10;98426.94;;;25.78;38.82
78485;BME280;67773;50.806;8.776;2023-07-24T10:09:36;98419.41;;;25.93;39.66
78485;BME280;67773;50.806;8.776;2023-07-24T10:12:04;98421.31;;;26.12;39.16
78485;BME280;67773;50.806;8.776;2023-07-24T10:14:30;98427.09;;;24.87;42.14
78485;BME280;67773;50.806;8.776;2023-07-24T10:16:56;98423.63;;;24.37;42.97
78485;BME280;67773;50.806;8.776;2023-07-24T10:19:22;98424.59;;;24.51;42.69
78485;BME280;67773;50.806;8.776;2023-07-24T10:21:48;98430.31;;;24.97;41.66
78485;BME280;67773;50.806;8.776;2023-07-24T10:24:15;98434.19;;;24.54;42.68
78485;BME280;67773;50.806;8.776;2023-07-24T10:26:40;98445.28;;;24.31;42.92
78485;BME280;67773;50.806;8.776;2023-07-24T10:29:06;98424.84;;;25.25;41.55
78485;BME280;67773;50.806;8.776;2023-07-24T10:31:31;98423.69;;;25.07;41.39
78485;BME280;67773;50.806;8.776;2023-07-24T10:34:06;98423.28;;;25.10;42.95
78485;BME280;67773;50.806;8.776;2023-07-24T10:36:36;98417.78;;;25.38;40.72
78485;BME280;67773;50.806;8.776;2023-07-24T10:39:13;98416.91;;;26.84;38.05
78485;BME280;67773;50.806;8.776;2023-07-24T10:41:38;98411.47;;;29.30;32.92
78485;BME280;67773;50.806;8.776;2023-07-24T10:44:05;98412.44;;;31.43;29.06
78485;BME280;67773;50.806;8.776;2023-07-24T10:46:41;98408.16;;;33.26;27.42
78485;BME280;67773;50.806;8.776;2023-07-24T10:49:07;98394.31;;;34.46;25.11
78485;BME280;67773;50.806;8.776;2023-07-24T10:51:33;98402.56;;;32.99;27.07
78485;BME280;67773;50.806;8.776;2023-07-24T10:54:02;98399.72;;;29.59;31.73
78485;BME280;67773;50.806;8.776;2023-07-24T10:56:27;98412.69;;;28.23;33.89
78485;BME280;67773;50.806;8.776;2023-07-24T10:58:54;98417.28;;;27.01;36.86
78485;BME280;67773;50.806;8.776;2023-07-24T11:01:19;98420.97;;;25.61;40.16
78485;BME280;67773;50.806;8.776;2023-07-24T11:03:45;98414.50;;;25.55;40.05
78485;BME280;67773;50.806;8.776;2023-07-24T11:06:15;98404.59;;;27.84;35.74
78485;BME280;67773;50.806;8.776;2023-07-24T11:08:41;98401.66;;;27.41;36.40
78485;BME280;67773;50.806;8.776;2023-07-24T11:11:07;98393.03;;;28.45;34.29
78485;BME280;67773;50.806;8.776;2023-07-24T11:13:33;98390.16;;;28.34;34.54
78485;BME280;67773;50.806;8.776;2023-07-24T11:16:04;98380.94;;;28.78;34.65
78485;BME280;67773;50.806;8.776;2023-07-24T11:18:30;98380.78;;;27.22;36.94
78485;BME280;67773;50.806;8.776;2023-07-24T11:20:56;98395.16;;;25.98;40.59
78485;BME280;67773;50.806;8.776;2023-07-24T11:23:22;98391.63;;;25.30;41.02
78485;BME280;67773;50.806;8.776;2023-07-24T11:25:52;98382.25;;;25.39;40.98
78485;BME280;67773;50.806;8.776;2023-07-24T11:28:18;98384.22;;;25.65;41.13
78485;BME280;67773;50.806;8.776;2023-07-24T11:30:43;98375.09;;;26.06;40.12
78485;BME280;67773;50.806;8.776;2023-07-24T11:33:10;98365.06;;;26.06;39.68
78485;BME280;67773;50.806;8.776;2023-07-24T11:35:37;98362.25;;;25.53;40.70
78485;BME280;67773;50.806;8.776;2023-07-24T11:38:07;98351.66;;;26.05;39.83
78485;BME280;67773;50.806;8.776;2023-07-24T11:40:35;98344.47;;;28.23;36.03
78485;BME280;67773;50.806;8.776;2023-07-24T11:43:02;98325.94;;;29.41;33.86
78485;BME280;67773;50.806;8.776;2023-07-24T11:45:39;98337.47;;;27.45;37.85
78485;BME280;67773;50.806;8.776;2023-07-24T11:48:09;98339.66;;;26.65;39.08
78485;BME280;67773;50.806;8.776;2023-07-24T11:50:42;98323.59;;;26.44;39.48
78485;BME280;67773;50.806;8.776;2023-07-24T11:53:21;98330.94;;;25.90;40.81
78485;BME280;67773;50.806;8.776;2023-07-24T11:55:51;98321.56;;;27.04;38.46
78485;BME280;67773;50.806;8.776;2023-07-24T11:58:17;98322.66;;;27.73;36.91
78485;BME280;67773;50.806;8.776;2023-07-24T12:00:43;98332.72;;;27.72;36.98
78485;BME280;67773;50.806;8.776;2023-07-24T12:03:08;98325.28;;;26.32;39.79
78485;BME280;67773;50.806;8.776;2023-07-24T12:05:40;98320.88;;;25.65;41.64
78485;BME280;67773;50.806;8.776;2023-07-24T12:08:07;98311.75;;;25.04;42.76
78485;BME280;67773;50.806;8.776;2023-07-24T12:10:36;98293.31;;;25.00;43.39
78485;BME280;67773;50.806;8.776;2023-07-24T12:13:02;98310.97;;;25.24;42.89
78485;BME280;67773;50.806;8.776;2023-07-24T12:15:27;98312.63;;;24.77;44.22
78485;BME280;67773;50.806;8.776;2023-07-24T12:17:53;98309.25;;;24.62;45.21
78485;BME280;67773;50.806;8.776;2023-07-24T12:20:18;98317.22;;;24.70;44.67
78485;BME280;67773;50.806;8.776;2023-07-24T12:22:43;98298.97;;;25.86;43.11
78485;BME280;67773;50.806;8.776;2023-07-24T12:25:09;98283.34;;;30.92;32.84
78485;BME280;67773;50.806;8.776;2023-07-24T12:27:34;98287.47;;;30.20;33.12
78485;BME280;67773;50.806;8.776;2023-07-24T12:30:00;98268.75;;;31.44;32.11
78485;BME280;67773;50.806;8.776;2023-07-24T12:32:26;98261.28;;;33.54;27.79
78485;BME280;67773;50.806;8.776;2023-07-24T12:34:53;98266.34;;;34.32;26.37
78485;BME280;67773;50.806;8.776;2023-07-24T12:37:19;98269.81;;;33.85;27.11
78485;BME280;67773;50.806;8.776;2023-07-24T12:39:46;98266.66;;;31.79;30.30
78485;BME280;67773;50.806;8.776;2023-07-24T12:42:11;98256.06;;;30.10;32.91
78485;BME280;67773;50.806;8.776;2023-07-24T12:44:37;98241.84;;;31.00;31.31
78485;BME280;67773;50.806;8.776;2023-07-24T12:47:03;98242.31;;;31.09;31.67
78485;BME280;67773;50.806;8.776;2023-07-24T12:49:28;98253.28;;;29.99;33.64
78485;BME280;67773;50.806;8.776;2023-07-24T12:51:53;98249.94;;;28.35;35.89
78485;BME280;67773;50.806;8.776;2023-07-24T12:54:19;98258.66;;;26.61;39.45
78485;BME280;67773;50.806;8.776;2023-07-24T12:56:46;98251.88;;;26.05;40.86
78485;BME280;67773;50.806;8.776;2023-07-24T12:59:11;98232.16;;;27.26;38.60